sensor_id;sensor_type;location;lat;lon;timestamp;noise_LAeq;noise_LA_min;noise_LA_max;noise_LA01;noise_LA95
74496;Laerm;62979;55.720;37.606;2023-05-10T00:01:48;44.59;40.61;49.03;;
74496;Laerm;62979;55.720;37.606;2023-05-10T00:04:15;46.22;41.77;53.87;;
74496;Laerm;62979;55.720;37.606;2023-05-10T00:06:42;45.55;42.09;49.66;;
74496;Laerm;62979;55.720;37.606;2023-05-10T00:09:10;45.06;41.20;48.43;;
74496;Laerm;62979;55.720;37.606;2023-05-10T00:11:37;45.47;41.91;50.13;;
74496;Laerm;62979;55.720;37.606;2023-05-10T00:14:04;45.18;40.64;49.72;;
74496;Laerm;62979;55.720;37.606;2023-05-10T00:16:31;45.52;40.78;54.11;;
74496;Laerm;62979;55.720;37.606;2023-05-10T00:18:58;45.30;40.95;52.60;;
74496;Laerm;62979;55.720;37.606;2023-05-10T00:21:25;49.44;41.84;62.77;;
74496;Laerm;62979;55.720;37.606;2023-05-10T00:23:53;55.84;40.55;70.85;;
74496;Laerm;62979;55.720;37.606;2023-05-10T00:26:22;45.07;40.00;56.14;;
74496;Laerm;62979;55.720;37.606;2023-05-10T00:28:48;45.61;40.67;57.13;;
74496;Laerm;62979;55.720;37.606;2023-05-10T00:31:15;44.66;40.18;56.27;;
74496;Laerm;62979;55.720;37.606;2023-05-10T00:33:42;45.01;40.32;48.74;;
74496;Laerm;62979;55.720;37.606;2023-05-10T00:36:09;45.07;41.14;50.44;;
74496;Laerm;62979;55.720;37.606;2023-05-10T00:38:36;46.37;40.99;57.30;;
74496;Laerm;62979;55.720;37.606;2023-05-10T00:41:03;45.64;41.49;54.59;;
74496;Laerm;62979;55.720;37.606;2023-05-10T00:43:32;47.52;41.55;60.58;;
74496;Laerm;62979;55.720;37.606;2023-05-10T00:45:59;44.53;40.47;53.85;;
74496;Laerm;62979;55.720;37.606;2023-05-10T00:48:26;44.09;40.28;54.72;;
74496;Laerm;62979;55.720;37.606;2023-05-10T00:50:53;46.15;39.84;57.59;;
74496;Laerm;62979;55.720;37.606;2023-05-10T00:53:21;45.14;39.70;62.35;;
74496;Laerm;62979;55.720;37.606;2023-05-10T00:55:48;44.39;39.69;57.14;;
74496;Laerm;62979;55.720;37.606;2023-05-10T00:58:15;43.56;39.95;49.98;;
74496;Laerm;62979;55.720;37.606;2023-05-10T01:00:46;45.40;39.90;55.57;;
74496;Laerm;62979;55.720;37.606;2023-05-10T01:03:14;44.13;39.80;50.23;;
74496;Laerm;62979;55.720;37.606;2023-05-10T01:05:41;43.70;39.57;47.42;;
74496;Laerm;62979;55.720;37.606;2023-05-10T01:08:07;43.80;39.66;49.75;;
74496;Laerm;62979;55.720;37.606;2023-05-10T01:10:35;43.69;39.47;49.82;;
74496;Laerm;62979;55.720;37.606;2023-05-10T01:13:02;43.76;39.72;52.82;;
74496;Laerm;62979;55.720;37.606;2023-05-10T01:15:30;44.75;40.53;57.33;;
74496;Laerm;62979;55.720;37.606;2023-05-10T01:18:00;45.73;39.52;56.78;;
74496;Laerm;62979;55.720;37.606;2023-05-10T01:20:35;44.44;39.39;55.31;;
74496;Laerm;62979;55.720;37.606;2023-05-10T01:23:32;44.04;39.77;48.43;;
74496;Laerm;62979;55.720;37.606;2023-05-10T01:30:05;46.24;39.86;64.22;;
74496;Laerm;62979;55.720;37.606;2023-05-10T01:32:44;49.40;40.42;66.04;;
74496;Laerm;62979;55.720;37.606;2023-05-10T01:35:22;45.97;40.67;62.76;;
74496;Laerm;62979;55.720;37.606;2023-05-10T01:38:04;44.83;39.78;54.75;;
74496;Laerm;62979;55.720;37.606;2023-05-10T01:40:40;46.18;40.83;68.48;;
74496;Laerm;62979;55.720;37.606;2023-05-10T01:43:21;47.50;41.68;60.45;;
74496;Laerm;62979;55.720;37.606;2023-05-10T01:46:00;44.69;40.54;53.66;;
74496;Laerm;62979;55.720;37.606;2023-05-10T01:48:42;53.55;41.85;61.80;;
74496;Laerm;62979;55.720;37.606;2023-05-10T01:51:17;45.20;40.88;54.37;;
74496;Laerm;62979;55.720;37.606;2023-05-10T01:53:47;45.83;40.48;56.87;;
74496;Laerm;62979;55.720;37.606;2023-05-10T01:56:16;44.47;40.03;57.10;;
74496;Laerm;62979;55.720;37.606;2023-05-10T01:58:48;53.56;42.48;63.42;;
74496;Laerm;62979;55.720;37.606;2023-05-10T02:01:20;46.04;40.82;58.23;;
74496;Laerm;62979;55.720;37.606;2023-05-10T02:03:51;45.02;41.60;53.11;;
74496;Laerm;62979;55.720;37.606;2023-05-10T02:06:21;44.88;41.20;51.11;;
74496;Laerm;62979;55.720;37.606;2023-05-10T02:08:51;49.24;41.37;60.77;;
74496;Laerm;62979;55.720;37.606;2023-05-10T02:11:21;47.92;41.31;58.41;;
74496;Laerm;62979;55.720;37.606;2023-05-10T02:13:51;48.04;41.92;59.11;;
74496;Laerm;62979;55.720;37.606;2023-05-10T02:16:25;46.19;41.23;56.18;;
74496;Laerm;62979;55.720;37.606;2023-05-10T02:18:55;46.17;41.35;58.15;;
74496;Laerm;62979;55.720;37.606;2023-05-10T02:21:25;45.49;40.85;56.52;;
74496;Laerm;62979;55.720;37.606;2023-05-10T02:23:53;45.56;41.33;56.38;;
74496;Laerm;62979;55.720;37.606;2023-05-10T02:26:23;49.11;41.30;63.23;;
74496;Laerm;62979;55.720;37.606;2023-05-10T02:28:53;47.35;41.30;58.34;;
74496;Laerm;62979;55.720;37.606;2023-05-10T02:31:21;47.14;40.53;56.82;;
74496;Laerm;62979;55.720;37.606;2023-05-10T02:33:50;49.92;42.57;62.11;;
74496;Laerm;62979;55.720;37.606;2023-05-10T02:36:21;53.69;41.02;63.38;;
74496;Laerm;62979;55.720;37.606;2023-05-10T02:38:51;52.95;42.34;62.13;;
74496;Laerm;62979;55.720;37.606;2023-05-10T02:41:21;51.04;42.58;59.08;;
74496;Laerm;62979;55.720;37.606;2023-05-10T02:43:51;45.69;41.95;53.47;;
74496;Laerm;62979;55.720;37.606;2023-05-10T02:46:19;46.80;42.26;53.94;;
74496;Laerm;62979;55.720;37.606;2023-05-10T02:48:46;47.95;42.89;58.95;;
74496;Laerm;62979;55.720;37.606;2023-05-10T02:51:18;47.71;41.77;57.89;;
74496;Laerm;62979;55.720;37.606;2023-05-10T02:53:49;48.13;42.65;59.57;;
74496;Laerm;62979;55.720;37.606;2023-05-10T02:56:34;50.88;42.81;66.06;;
74496;Laerm;62979;55.720;37.606;2023-05-10T02:59:02;49.20;42.96;58.76;;
74496;Laerm;62979;55.720;37.606;2023-05-10T03:01:29;47.76;42.61;56.55;;
74496;Laerm;62979;55.720;37.606;2023-05-10T03:03:56;51.19;43.37;64.12;;
74496;Laerm;62979;55.720;37.606;2023-05-10T03:06:25;51.08;44.01;60.40;;
74496;Laerm;62979;55.720;37.606;2023-05-10T03:08:51;49.33;43.69;58.78;;
74496;Laerm;62979;55.720;37.606;2023-05-10T03:11:39;52.37;44.23;63.09;;
74496;Laerm;62979;55.720;37.606;2023-05-10T03:14:24;51.63;44.38;61.83;;
74496;Laerm;62979;55.720;37.606;2023-05-10T03:17:00;51.55;44.15;64.69;;
74496;Laerm;62979;55.720;37.606;2023-05-10T03:19:32;51.86;44.44;62.63;;
74496;Laerm;62979;55.720;37.606;2023-05-10T03:22:10;60.59;46.50;71.24;;
74496;Laerm;62979;55.720;37.606;2023-05-10T03:24:42;51.93;44.72;60.61;;
74496;Laerm;62979;55.720;37.606;2023-05-10T03:27:10;53.91;45.06;61.06;;
74496;Laerm;62979;55.720;37.606;2023-05-10T03:29:39;57.68;45.26;69.90;;
74496;Laerm;62979;55.720;37.606;2023-05-10T03:32:06;56.06;45.94;68.54;;
74496;Laerm;62979;55.720;37.606;2023-05-10T03:34:33;53.00;44.04;65.28;;
74496;Laerm;62979;55.720;37.606;2023-05-10T03:37:01;53.65;45.68;64.98;;
74496;Laerm;62979;55.720;37.606;2023-05-10T03:39:29;51.70;44.65;66.11;;
74496;Laerm;62979;55.720;37.606;2023-05-10T03:41:56;50.85;43.39;64.04;;
74496;Laerm;62979;55.720;37.606;2023-05-10T03:44:23;52.89;44.82;62.88;;
74496;Laerm;62979;55.720;37.606;2023-05-10T03:46:50;52.04;46.46;63.75;;
74496;Laerm;62979;55.720;37.606;2023-05-10T03:49:17;53.51;45.81;69.00;;
74496;Laerm;62979;55.720;37.606;2023-05-10T03:51:44;54.01;45.41;67.05;;
74496;Laerm;62979;55.720;37.606;2023-05-10T03:54:10;51.96;44.63;74.85;;
74496;Laerm;62979;55.720;37.606;2023-05-10T03:56:39;52.98;44.86;62.44;;
74496;Laerm;62979;55.720;37.606;2023-05-10T03:59:06;50.34;45.64;58.22;;
74496;Laerm;62979;55.720;37.606;2023-05-10T04:01:34;50.95;45.78;59.70;;
74496;Laerm;62979;55.720;37.606;2023-05-10T04:04:01;51.54;45.77;64.99;;
74496;Laerm;62979;55.720;37.606;2023-05-10T04:06:28;58.34;46.96;71.88;;
74496;Laerm;62979;55.720;37.606;2023-05-10T04:08:55;51.81;44.90;63.46;;
74496;Laerm;62979;55.720;37.606;2023-05-10T04:11:21;53.86;46.74;62.75;;
74496;Laerm;62979;55.720;37.606;2023-05-10T04:13:51;52.67;45.60;64.08;;
74496;Laerm;62979;55.720;37.606;2023-05-10T04:16:18;63.89;47.08;84.86;;
74496;Laerm;62979;55.720;37.606;2023-05-10T04:18:45;64.53;47.32;87.23;;
74496;Laerm;62979;55.720;37.606;2023-05-10T04:21:12;57.03;48.61;67.61;;
74496;Laerm;62979;55.720;37.606;2023-05-10T04:23:39;53.42;45.03;65.56;;
74496;Laerm;62979;55.720;37.606;2023-05-10T04:26:07;53.81;46.56;61.52;;
74496;Laerm;62979;55.720;37.606;2023-05-10T04:28:34;55.64;47.13;64.01;;
74496;Laerm;62979;55.720;37.606;2023-05-10T04:31:05;54.28;46.83;61.77;;
74496;Laerm;62979;55.720;37.606;2023-05-10T04:33:32;51.14;46.19;57.31;;
74496;Laerm;62979;55.720;37.606;2023-05-10T04:35:59;53.53;46.66;63.13;;
74496;Laerm;62979;55.720;37.606;2023-05-10T04:38:27;55.36;46.64;67.23;;
74496;Laerm;62979;55.720;37.606;2023-05-10T04:40:54;55.71;47.73;65.80;;
74496;Laerm;62979;55.720;37.606;2023-05-10T04:43:21;53.59;46.18;66.32;;
74496;Laerm;62979;55.720;37.606;2023-05-10T04:45:48;54.93;46.72;63.33;;
74496;Laerm;62979;55.720;37.606;2023-05-10T04:48:17;58.45;45.74;72.71;;
74496;Laerm;62979;55.720;37.606;2023-05-10T04:50:43;55.89;48.47;64.64;;
74496;Laerm;62979;55.720;37.606;2023-05-10T04:53:10;58.23;46.71;71.60;;
74496;Laerm;62979;55.720;37.606;2023-05-10T04:55:38;56.08;50.55;70.51;;
74496;Laerm;62979;55.720;37.606;2023-05-10T04:58:05;56.74;50.36;65.34;;
74496;Laerm;62979;55.720;37.606;2023-05-10T05:00:33;57.65;48.46;64.84;;
74496;Laerm;62979;55.720;37.606;2023-05-10T05:03:00;57.97;51.07;72.11;;
74496;Laerm;62979;55.720;37.606;2023-05-10T05:05:29;60.92;51.72;75.92;;
74496;Laerm;62979;55.720;37.606;2023-05-10T05:07:56;59.32;53.12;68.46;;
74496;Laerm;62979;55.720;37.606;2023-05-10T05:10:23;59.81;53.34;66.26;;
74496;Laerm;62979;55.720;37.606;2023-05-10T05:12:50;58.35;52.59;69.80;;
74496;Laerm;62979;55.720;37.606;2023-05-10T05:15:17;57.30;49.45;63.72;;
74496;Laerm;62979;55.720;37.606;2023-05-10T05:17:44;57.94;49.80;67.54;;
74496;Laerm;62979;55.720;37.606;2023-05-10T05:20:11;58.13;50.81;65.30;;
74496;Laerm;62979;55.720;37.606;2023-05-10T05:22:40;56.55;49.23;62.36;;
74496;Laerm;62979;55.720;37.606;2023-05-10T05:25:08;56.70;47.53;64.97;;
74496;Laerm;62979;55.720;37.606;2023-05-10T05:27:35;56.82;49.79;65.11;;
74496;Laerm;62979;55.720;37.606;2023-05-10T05:30:02;55.76;48.22;63.76;;
74496;Laerm;62979;55.720;37.606;2023-05-10T05:32:29;55.19;49.54;63.34;;
74496;Laerm;62979;55.720;37.606;2023-05-10T05:34:57;60.24;50.36;73.03;;
74496;Laerm;62979;55.720;37.606;2023-05-10T05:37:23;60.38;49.98;70.30;;
74496;Laerm;62979;55.720;37.606;2023-05-10T05:39:52;56.93;50.68;70.13;;
74496;Laerm;62979;55.720;37.606;2023-05-10T05:42:20;56.66;49.58;68.93;;
74496;Laerm;62979;55.720;37.606;2023-05-10T05:44:47;57.09;51.09;68.61;;
74496;Laerm;62979;55.720;37.606;2023-05-10T05:47:14;58.25;52.75;69.98;;
74496;Laerm;62979;55.720;37.606;2023-05-10T05:49:41;58.67;53.35;71.55;;
74496;Laerm;62979;55.720;37.606;2023-05-10T05:52:11;59.05;53.80;74.55;;
74496;Laerm;62979;55.720;37.606;2023-05-10T05:54:38;58.18;53.70;68.01;;
74496;Laerm;62979;55.720;37.606;2023-05-10T05:57:06;59.20;53.85;81.61;;
74496;Laerm;62979;55.720;37.606;2023-05-10T05:59:33;57.94;53.34;69.20;;
74496;Laerm;62979;55.720;37.606;2023-05-10T06:02:00;58.21;53.19;74.05;;
74496;Laerm;62979;55.720;37.606;2023-05-10T06:04:27;58.15;54.04;72.71;;
74496;Laerm;62979;55.720;37.606;2023-05-10T06:06:54;59.79;54.22;70.46;;
74496;Laerm;62979;55.720;37.606;2023-05-10T06:09:21;59.87;52.94;69.92;;
74496;Laerm;62979;55.720;37.606;2023-05-10T06:11:49;57.79;53.55;63.76;;
74496;Laerm;62979;55.720;37.606;2023-05-10T06:14:17;58.90;53.69;71.35;;
74496;Laerm;62979;55.720;37.606;2023-05-10T06:16:44;60.03;53.70;70.11;;
74496;Laerm;62979;55.720;37.606;2023-05-10T06:19:11;60.80;54.08;84.70;;
74496;Laerm;62979;55.720;37.606;2023-05-10T06:21:38;61.21;55.95;78.71;;
74496;Laerm;62979;55.720;37.606;2023-05-10T06:24:06;62.17;56.05;79.01;;
74496;Laerm;62979;55.720;37.606;2023-05-10T06:26:33;63.67;56.68;78.47;;
74496;Laerm;62979;55.720;37.606;2023-05-10T06:29:00;64.84;58.08;81.68;;
74496;Laerm;62979;55.720;37.606;2023-05-10T06:31:28;63.69;55.96;78.99;;
74496;Laerm;62979;55.720;37.606;2023-05-10T06:33:55;63.28;57.68;80.14;;
74496;Laerm;62979;55.720;37.606;2023-05-10T06:36:23;67.70;58.69;81.39;;
74496;Laerm;62979;55.720;37.606;2023-05-10T06:38:51;66.46;57.58;78.57;;
74496;Laerm;62979;55.720;37.606;2023-05-10T06:41:18;64.91;57.40;79.96;;
74496;Laerm;62979;55.720;37.606;2023-05-10T06:43:45;64.77;56.23;72.76;;
74496;Laerm;62979;55.720;37.606;2023-05-10T06:46:12;66.25;58.91;84.02;;
74496;Laerm;62979;55.720;37.606;2023-05-10T06:48:40;66.00;58.30;80.25;;
74496;Laerm;62979;55.720;37.606;2023-05-10T06:51:07;64.94;57.82;82.83;;
74496;Laerm;62979;55.720;37.606;2023-05-10T06:53:34;66.52;57.40;77.89;;
74496;Laerm;62979;55.720;37.606;2023-05-10T06:56:01;65.75;59.34;83.59;;
74496;Laerm;62979;55.720;37.606;2023-05-10T06:58:28;65.40;56.44;80.76;;
74496;Laerm;62979;55.720;37.606;2023-05-10T07:01:02;63.46;56.11;73.27;;
74496;Laerm;62979;55.720;37.606;2023-05-10T07:03:29;64.85;56.69;81.40;;
74496;Laerm;62979;55.720;37.606;2023-05-10T07:06:01;64.50;56.19;78.44;;
74496;Laerm;62979;55.720;37.606;2023-05-10T07:08:30;61.53;56.53;71.84;;
74496;Laerm;62979;55.720;37.606;2023-05-10T07:11:01;63.24;56.13;77.63;;
74496;Laerm;62979;55.720;37.606;2023-05-10T07:13:29;64.40;57.81;78.61;;
74496;Laerm;62979;55.720;37.606;2023-05-10T07:15:57;65.57;56.84;78.77;;
74496;Laerm;62979;55.720;37.606;2023-05-10T07:18:24;64.21;53.20;78.38;;
74496;Laerm;62979;55.720;37.606;2023-05-10T07:20:51;63.22;55.49;75.70;;
74496;Laerm;62979;55.720;37.606;2023-05-10T07:23:19;57.79;51.46;63.39;;
74496;Laerm;62979;55.720;37.606;2023-05-10T07:25:47;56.37;50.11;63.44;;
74496;Laerm;62979;55.720;37.606;2023-05-10T07:28:14;56.94;51.11;68.87;;
74496;Laerm;62979;55.720;37.606;2023-05-10T07:30:43;59.36;51.59;72.28;;
74496;Laerm;62979;55.720;37.606;2023-05-10T07:33:13;56.65;48.77;63.84;;
74496;Laerm;62979;55.720;37.606;2023-05-10T07:35:40;56.66;49.38;63.24;;
74496;Laerm;62979;55.720;37.606;2023-05-10T07:38:07;58.55;49.66;64.30;;
74496;Laerm;62979;55.720;37.606;2023-05-10T07:40:39;56.82;49.25;64.17;;
74496;Laerm;62979;55.720;37.606;2023-05-10T07:43:05;58.02;48.47;72.11;;
74496;Laerm;62979;55.720;37.606;2023-05-10T07:45:33;56.50;49.18;64.18;;
74496;Laerm;62979;55.720;37.606;2023-05-10T07:48:00;54.43;46.95;67.77;;
74496;Laerm;62979;55.720;37.606;2023-05-10T07:50:27;54.21;46.69;62.21;;
74496;Laerm;62979;55.720;37.606;2023-05-10T07:52:54;53.86;45.82;65.51;;
74496;Laerm;62979;55.720;37.606;2023-05-10T07:55:21;54.72;47.70;65.57;;
74496;Laerm;62979;55.720;37.606;2023-05-10T07:57:49;54.58;47.35;63.35;;
74496;Laerm;62979;55.720;37.606;2023-05-10T08:00:18;57.41;50.84;69.18;;
74496;Laerm;62979;55.720;37.606;2023-05-10T08:02:46;54.23;47.70;60.97;;
74496;Laerm;62979;55.720;37.606;2023-05-10T08:05:13;54.71;42.69;64.20;;
74496;Laerm;62979;55.720;37.606;2023-05-10T08:07:40;54.91;47.24;63.17;;
74496;Laerm;62979;55.720;37.606;2023-05-10T08:10:09;54.16;47.60;68.00;;
74496;Laerm;62979;55.720;37.606;2023-05-10T08:12:37;53.92;47.20;64.82;;
74496;Laerm;62979;55.720;37.606;2023-05-10T08:15:08;56.31;46.93;79.31;;
74496;Laerm;62979;55.720;37.606;2023-05-10T08:17:35;57.83;48.45;68.62;;
74496;Laerm;62979;55.720;37.606;2023-05-10T08:20:02;58.50;50.17;68.67;;
74496;Laerm;62979;55.720;37.606;2023-05-10T08:22:29;63.56;56.22;77.98;;
74496;Laerm;62979;55.720;37.606;2023-05-10T08:24:56;59.43;50.54;67.45;;
74496;Laerm;62979;55.720;37.606;2023-05-10T08:27:23;55.35;45.99;66.08;;
74496;Laerm;62979;55.720;37.606;2023-05-10T08:29:50;58.05;46.27;73.61;;
74496;Laerm;62979;55.720;37.606;2023-05-10T08:32:18;58.06;48.62;66.79;;
74496;Laerm;62979;55.720;37.606;2023-05-10T08:34:45;54.68;46.69;64.49;;
74496;Laerm;62979;55.720;37.606;2023-05-10T08:37:12;55.13;47.13;61.80;;
74496;Laerm;62979;55.720;37.606;2023-05-10T08:39:39;59.84;50.92;79.02;;
74496;Laerm;62979;55.720;37.606;2023-05-10T08:42:07;61.55;50.71;71.29;;
74496;Laerm;62979;55.720;37.606;2023-05-10T08:44:36;60.16;49.73;70.94;;
74496;Laerm;62979;55.720;37.606;2023-05-10T08:47:05;61.34;51.22;80.23;;
74496;Laerm;62979;55.720;37.606;2023-05-10T08:49:35;57.12;49.10;64.74;;
74496;Laerm;62979;55.720;37.606;2023-05-10T08:52:05;57.13;45.42;73.33;;
74496;Laerm;62979;55.720;37.606;2023-05-10T08:54:33;58.33;47.77;68.67;;
74496;Laerm;62979;55.720;37.606;2023-05-10T08:57:00;53.66;47.21;59.78;;
74496;Laerm;62979;55.720;37.606;2023-05-10T08:59:28;53.84;45.97;61.86;;
74496;Laerm;62979;55.720;37.606;2023-05-10T09:01:57;56.18;45.74;72.39;;
74496;Laerm;62979;55.720;37.606;2023-05-10T09:04:25;56.47;50.34;63.58;;
74496;Laerm;62979;55.720;37.606;2023-05-10T09:06:54;58.41;49.78;71.55;;
74496;Laerm;62979;55.720;37.606;2023-05-10T09:09:21;57.38;50.48;64.50;;
74496;Laerm;62979;55.720;37.606;2023-05-10T09:11:48;63.04;54.82;73.62;;
74496;Laerm;62979;55.720;37.606;2023-05-10T09:14:15;58.57;49.33;69.88;;
74496;Laerm;62979;55.720;37.606;2023-05-10T09:16:43;65.48;57.83;72.99;;
74496;Laerm;62979;55.720;37.606;2023-05-10T09:19:10;62.86;50.72;71.80;;
74496;Laerm;62979;55.720;37.606;2023-05-10T09:21:38;64.79;52.29;74.35;;
74496;Laerm;62979;55.720;37.606;2023-05-10T09:24:08;58.18;46.81;70.69;;
74496;Laerm;62979;55.720;37.606;2023-05-10T09:26:35;54.29;46.23;71.57;;
74496;Laerm;62979;55.720;37.606;2023-05-10T09:29:12;58.04;46.88;71.15;;
74496;Laerm;62979;55.720;37.606;2023-05-10T09:31:47;58.26;46.84;70.46;;
74496;Laerm;62979;55.720;37.606;2023-05-10T09:34:18;57.61;48.25;75.11;;
74496;Laerm;62979;55.720;37.606;2023-05-10T09:36:53;59.13;46.94;74.83;;
74496;Laerm;62979;55.720;37.606;2023-05-10T09:39:30;58.96;48.23;72.58;;
74496;Laerm;62979;55.720;37.606;2023-05-10T09:41:59;57.00;51.26;64.36;;
74496;Laerm;62979;55.720;37.606;2023-05-10T09:44:27;59.27;49.15;72.02;;
74496;Laerm;62979;55.720;37.606;2023-05-10T09:46:53;59.56;50.86;70.19;;
74496;Laerm;62979;55.720;37.606;2023-05-10T09:49:23;60.14;48.39;65.79;;
74496;Laerm;62979;55.720;37.606;2023-05-10T09:52:01;59.85;49.32;65.71;;
74496;Laerm;62979;55.720;37.606;2023-05-10T09:54:31;56.86;47.73;65.91;;
74496;Laerm;62979;55.720;37.606;2023-05-10T09:56:58;53.83;43.63;63.59;;
74496;Laerm;62979;55.720;37.606;2023-05-10T09:59:27;55.45;43.11;77.29;;
74496;Laerm;62979;55.720;37.606;2023-05-10T10:01:57;55.48;43.76;78.00;;
74496;Laerm;62979;55.720;37.606;2023-05-10T10:04:24;54.20;42.53;62.39;;
74496;Laerm;62979;55.720;37.606;2023-05-10T10:07:00;55.53;46.16;67.43;;
74496;Laerm;62979;55.720;37.606;2023-05-10T10:09:29;52.12;44.09;61.68;;
74496;Laerm;62979;55.720;37.606;2023-05-10T10:11:56;54.03;45.36;64.53;;
74496;Laerm;62979;55.720;37.606;2023-05-10T10:14:24;54.75;47.94;65.26;;
74496;Laerm;62979;55.720;37.606;2023-05-10T10:16:52;54.17;47.29;66.55;;
74496;Laerm;62979;55.720;37.606;2023-05-10T10:19:19;55.45;46.12;72.81;;
74496;Laerm;62979;55.720;37.606;2023-05-10T10:21:46;55.28;46.29;72.81;;
74496;Laerm;62979;55.720;37.606;2023-05-10T10:24:13;54.28;44.26;69.31;;
74496;Laerm;62979;55.720;37.606;2023-05-10T10:26:43;54.10;43.31;73.42;;
74496;Laerm;62979;55.720;37.606;2023-05-10T10:29:23;55.12;46.06;66.09;;
74496;Laerm;62979;55.720;37.606;2023-05-10T10:32:03;54.87;45.83;65.01;;
74496;Laerm;62979;55.720;37.606;2023-05-10T10:34:34;54.55;46.38;66.20;;
74496;Laerm;62979;55.720;37.606;2023-05-10T10:37:05;55.66;44.95;71.90;;
74496;Laerm;62979;55.720;37.606;2023-05-10T10:39:32;54.48;45.21;62.39;;
74496;Laerm;62979;55.720;37.606;2023-05-10T10:42:04;53.78;45.99;71.65;;
74496;Laerm;62979;55.720;37.606;2023-05-10T10:44:37;53.26;44.26;61.09;;
74496;Laerm;62979;55.720;37.606;2023-05-10T10:47:21;53.95;45.08;65.59;;
74496;Laerm;62979;55.720;37.606;2023-05-10T10:50:04;54.76;47.20;68.54;;
74496;Laerm;62979;55.720;37.606;2023-05-10T10:52:33;55.18;47.13;61.00;;
74496;Laerm;62979;55.720;37.606;2023-05-10T10:55:03;53.93;45.21;62.44;;
74496;Laerm;62979;55.720;37.606;2023-05-10T10:57:44;54.84;45.32;64.95;;
74496;Laerm;62979;55.720;37.606;2023-05-10T11:00:26;55.26;45.90;66.45;;
74496;Laerm;62979;55.720;37.606;2023-05-10T11:02:57;61.44;45.39;73.89;;
74496;Laerm;62979;55.720;37.606;2023-05-10T11:05:45;58.59;45.25;73.71;;
74496;Laerm;62979;55.720;37.606;2023-05-10T11:08:16;54.80;45.67;70.37;;
74496;Laerm;62979;55.720;37.606;2023-05-10T11:10:53;54.55;46.37;64.08;;
74496;Laerm;62979;55.720;37.606;2023-05-10T11:13:32;61.03;45.79;81.90;;
74496;Laerm;62979;55.720;37.606;2023-05-10T11:16:14;53.29;45.27;63.90;;
74496;Laerm;62979;55.720;37.606;2023-05-10T11:18:53;61.44;47.81;71.47;;
74496;Laerm;62979;55.720;37.606;2023-05-10T11:21:20;66.55;45.45;82.30;;
74496;Laerm;62979;55.720;37.606;2023-05-10T11:23:50;55.55;44.08;66.79;;
74496;Laerm;62979;55.720;37.606;2023-05-10T11:26:17;58.94;49.02;72.01;;
74496;Laerm;62979;55.720;37.606;2023-05-10T11:28:51;59.15;46.48;74.97;;
74496;Laerm;62979;55.720;37.606;2023-05-10T11:31:19;59.52;49.64;70.89;;
74496;Laerm;62979;55.720;37.606;2023-05-10T11:33:49;59.32;48.93;68.76;;
74496;Laerm;62979;55.720;37.606;2023-05-10T11:36:19;56.18;48.51;72.32;;
74496;Laerm;62979;55.720;37.606;2023-05-10T11:38:47;55.53;48.71;64.00;;
74496;Laerm;62979;55.720;37.606;2023-05-10T11:41:18;63.75;49.49;82.80;;
74496;Laerm;62979;55.720;37.606;2023-05-10T11:43:51;55.90;47.58;66.55;;
74496;Laerm;62979;55.720;37.606;2023-05-10T11:46:25;56.39;47.49;73.82;;
74496;Laerm;62979;55.720;37.606;2023-05-10T11:48:55;55.73;47.53;73.33;;
74496;Laerm;62979;55.720;37.606;2023-05-10T11:51:25;54.41;47.35;61.70;;
74496;Laerm;62979;55.720;37.606;2023-05-10T11:53:55;60.59;46.23;75.29;;
74496;Laerm;62979;55.720;37.606;2023-05-10T11:56:22;56.37;47.38;72.85;;
74496;Laerm;62979;55.720;37.606;2023-05-10T11:58:57;60.62;50.83;73.67;;
74496;Laerm;62979;55.720;37.606;2023-05-10T12:01:27;63.12;49.95;83.24;;
74496;Laerm;62979;55.720;37.606;2023-05-10T12:03:57;62.80;49.86;79.33;;
74496;Laerm;62979;55.720;37.606;2023-05-10T12:06:28;61.75;48.91;76.79;;
74496;Laerm;62979;55.720;37.606;2023-05-10T12:08:55;64.91;50.94;80.41;;
74496;Laerm;62979;55.720;37.606;2023-05-10T12:11:25;64.02;51.26;77.68;;
74496;Laerm;62979;55.720;37.606;2023-05-10T12:13:55;66.23;52.45;77.72;;
74496;Laerm;62979;55.720;37.606;2023-05-10T12:16:24;61.26;47.67;80.47;;
74496;Laerm;62979;55.720;37.606;2023-05-10T12:18:56;59.68;47.90;81.82;;
74496;Laerm;62979;55.720;37.606;2023-05-10T12:21:24;57.01;47.89;68.94;;
74496;Laerm;62979;55.720;37.606;2023-05-10T12:23:53;57.24;47.49;72.62;;
74496;Laerm;62979;55.720;37.606;2023-05-10T12:26:22;60.40;50.41;70.30;;
74496;Laerm;62979;55.720;37.606;2023-05-10T12:28:50;58.22;43.54;67.61;;
74496;Laerm;62979;55.720;37.606;2023-05-10T12:31:18;59.23;46.19;73.91;;
74496;Laerm;62979;55.720;37.606;2023-05-10T12:33:45;56.08;47.22;69.60;;
74496;Laerm;62979;55.720;37.606;2023-05-10T12:36:16;54.85;47.91;64.90;;
74496;Laerm;62979;55.720;37.606;2023-05-10T12:38:44;54.33;45.74;61.89;;
74496;Laerm;62979;55.720;37.606;2023-05-10T12:41:15;58.42;45.59;69.79;;
74496;Laerm;62979;55.720;37.606;2023-05-10T12:43:43;53.85;45.33;67.27;;
74496;Laerm;62979;55.720;37.606;2023-05-10T12:46:12;55.67;47.29;78.18;;
74496;Laerm;62979;55.720;37.606;2023-05-10T12:48:43;54.12;46.75;62.36;;
74496;Laerm;62979;55.720;37.606;2023-05-10T12:51:11;54.82;46.20;68.44;;
74496;Laerm;62979;55.720;37.606;2023-05-10T12:53:41;54.64;47.52;62.79;;
74496;Laerm;62979;55.720;37.606;2023-05-10T12:56:08;57.73;46.06;70.71;;
74496;Laerm;62979;55.720;37.606;2023-05-10T12:58:35;56.66;46.41;74.85;;
74496;Laerm;62979;55.720;37.606;2023-05-10T13:01:02;60.72;48.66;74.16;;
74496;Laerm;62979;55.720;37.606;2023-05-10T13:03:31;61.46;50.57;71.27;;
74496;Laerm;62979;55.720;37.606;2023-05-10T13:05:59;59.43;50.07;69.56;;
74496;Laerm;62979;55.720;37.606;2023-05-10T13:08:26;59.91;47.92;70.95;;
74496;Laerm;62979;55.720;37.606;2023-05-10T13:10:58;61.79;51.83;71.03;;
74496;Laerm;62979;55.720;37.606;2023-05-10T13:13:26;57.99;47.08;69.05;;
74496;Laerm;62979;55.720;37.606;2023-05-10T13:15:53;59.74;47.03;71.06;;
74496;Laerm;62979;55.720;37.606;2023-05-10T13:18:20;60.57;48.48;71.77;;
74496;Laerm;62979;55.720;37.606;2023-05-10T13:20:50;60.75;50.74;71.76;;
74496;Laerm;62979;55.720;37.606;2023-05-10T13:23:18;61.38;51.26;70.76;;
74496;Laerm;62979;55.720;37.606;2023-05-10T13:25:45;60.82;49.59;71.35;;
74496;Laerm;62979;55.720;37.606;2023-05-10T13:28:12;61.77;50.76;72.36;;
74496;Laerm;62979;55.720;37.606;2023-05-10T13:30:39;60.97;50.49;70.38;;
74496;Laerm;62979;55.720;37.606;2023-05-10T13:33:06;56.75;46.71;68.88;;
74496;Laerm;62979;55.720;37.606;2023-05-10T13:35:33;53.53;45.29;62.18;;
74496;Laerm;62979;55.720;37.606;2023-05-10T13:38:00;57.60;48.39;63.13;;
74496;Laerm;62979;55.720;37.606;2023-05-10T13:40:28;53.25;46.10;63.33;;
74496;Laerm;62979;55.720;37.606;2023-05-10T13:42:55;53.45;44.59;63.01;;
74496;Laerm;62979;55.720;37.606;2023-05-10T13:45:22;54.73;48.63;64.59;;
74496;Laerm;62979;55.720;37.606;2023-05-10T13:47:49;55.97;47.57;62.87;;